createdAt,value
2023-05-05T00:02:19.547Z,38.00
2023-05-05T00:05:24.658Z,39.00
2023-05-05T00:08:29.200Z,41.25
2023-05-05T00:11:32.760Z,41.00
2023-05-05T00:14:36.692Z,43.25
2023-05-05T00:17:41.778Z,44.00
2023-05-05T00:20:47.096Z,37.50
2023-05-05T00:23:50.493Z,42.75
2023-05-05T00:26:54.248Z,44.50
2023-05-05T00:29:57.824Z,39.50
2023-05-05T00:33:03.385Z,37.75
2023-05-05T00:36:07.466Z,40.00
2023-05-05T00:39:12.043Z,46.25
2023-05-05T00:42:16.406Z,46.00
2023-05-05T00:45:21.478Z,40.00
2023-05-05T00:48:26.882Z,44.50
2023-05-05T00:51:31.403Z,49.50
2023-05-05T00:54:35.839Z,45.25
2023-05-05T00:57:39.724Z,49.25
2023-05-05T01:00:43.212Z,45.75
2023-05-05T01:03:48.497Z,46.75
2023-05-05T01:07:04.896Z,39.75
2023-05-05T01:10:20.393Z,47.25
2023-05-05T01:13:33.768Z,54.00
2023-05-05T01:16:42.059Z,40.75
2023-05-05T01:20:00.182Z,44.50
2023-05-05T01:23:10.902Z,51.00
2023-05-05T01:26:29.047Z,48.00
2023-05-05T01:30:04.504Z,40.50
2023-05-05T01:33:15.741Z,49.00
2023-05-05T01:36:24.618Z,53.25
2023-05-05T01:39:34.740Z,46.25
2023-05-05T01:42:42.707Z,64.50
2023-05-05T01:45:48.097Z,60.25
2023-05-05T01:48:55.014Z,60.25
2023-05-05T01:52:00.827Z,48.75
2023-05-05T01:55:07.851Z,48.25
2023-05-05T01:58:13.490Z,47.00
2023-05-05T02:01:20.522Z,47.50
2023-05-05T02:04:26.171Z,46.50
2023-05-05T02:07:32.868Z,45.50
2023-05-05T02:10:40.918Z,45.75
2023-05-05T02:13:46.196Z,45.50
2023-05-05T02:16:54.015Z,53.50
2023-05-05T02:20:02.334Z,51.00
2023-05-05T02:23:08.388Z,42.75
2023-05-05T02:26:17.074Z,45.50
2023-05-05T02:29:47.505Z,50.50
2023-05-05T02:32:57.147Z,45.50
2023-05-05T02:36:13.829Z,17.50
2023-05-05T02:39:31.954Z,41.50
2023-05-05T02:42:42.916Z,40.00
2023-05-05T02:45:49.190Z,41.25
2023-05-05T02:48:54.037Z,30.75
2023-05-05T02:51:59.337Z,39.25
2023-05-05T02:55:08.710Z,39.25
2023-05-05T02:58:25.710Z,44.00
2023-05-05T03:01:37.835Z,40.25
2023-05-05T03:04:46.462Z,41.75
2023-05-05T03:07:56.869Z,29.50
2023-05-05T03:11:07.860Z,46.25
2023-05-05T03:14:18.443Z,35.75
2023-05-05T03:17:25.687Z,37.50
2023-05-05T03:20:30.786Z,38.75
2023-05-05T03:23:40.875Z,48.50
2023-05-05T03:26:51.552Z,35.75
2023-05-05T03:29:58.784Z,36.50
2023-05-05T03:33:03.561Z,48.00
2023-05-05T03:36:07.967Z,43.50
2023-05-05T03:39:13.432Z,34.75
2023-05-05T03:42:17.626Z,38.00
2023-05-05T03:45:21.687Z,39.50
2023-05-05T03:48:25.857Z,39.75
2023-05-05T03:51:29.604Z,40.50
2023-05-05T03:54:37.325Z,37.75
2023-05-05T03:57:40.834Z,40.00
2023-05-05T04:00:44.818Z,49.50
2023-05-05T04:03:48.413Z,37.50
2023-05-05T04:06:52.390Z,41.50
2023-05-05T04:09:57.981Z,42.00
2023-05-05T04:13:02.152Z,42.75
2023-05-05T04:16:08.846Z,35.50
2023-05-05T04:19:14.531Z,48.25
2023-05-05T04:22:18.144Z,47.00
2023-05-05T04:25:23.509Z,42.25
2023-05-05T04:28:27.380Z,39.25
2023-05-05T04:31:32.167Z,46.75
2023-05-05T04:34:36.298Z,40.00
2023-05-05T04:37:40.377Z,32.75
2023-05-05T04:40:46.327Z,41.25
2023-05-05T04:43:50.169Z,41.00
2023-05-05T04:46:53.814Z,37.75
2023-05-05T04:49:58.164Z,45.25
2023-05-05T04:53:01.975Z,36.50
2023-05-05T04:56:08.027Z,40.00
2023-05-05T04:59:11.756Z,35.75
2023-05-05T05:02:15.717Z,29.25
2023-05-05T05:05:19.519Z,32.00
2023-05-05T05:08:24.136Z,37.25
2023-05-05T05:11:29.244Z,46.25
2023-05-05T05:14:38.159Z,45.50
2023-05-05T05:17:42.503Z,40.50
2023-05-05T05:20:47.200Z,40.25
2023-05-05T05:23:51.538Z,44.50
2023-05-05T05:26:57.539Z,42.50
2023-05-05T05:30:01.571Z,35.75
2023-05-05T05:33:07.993Z,46.25
2023-05-05T05:36:11.748Z,42.50
2023-05-05T05:39:15.668Z,42.00
2023-05-05T05:42:20.969Z,52.50
2023-05-05T05:45:25.270Z,46.25
2023-05-05T05:48:30.003Z,45.50
2023-05-05T05:51:35.753Z,43.00
2023-05-05T05:54:49.116Z,41.50
2023-05-05T05:57:57.745Z,42.50
2023-05-05T06:01:04.095Z,41.00
2023-05-05T06:04:08.754Z,46.00
2023-05-05T06:07:14.445Z,45.25
2023-05-05T06:10:26.399Z,44.00
2023-05-05T06:13:36.230Z,45.50
2023-05-05T06:16:41.630Z,35.00
2023-05-05T06:19:49.305Z,40.00
2023-05-05T06:22:53.604Z,49.50
2023-05-05T06:25:57.752Z,45.25
2023-05-05T06:29:03.015Z,37.75
2023-05-05T06:32:08.521Z,42.75
2023-05-05T06:35:12.508Z,48.00
2023-05-05T06:38:16.043Z,40.25
2023-05-05T06:41:19.953Z,44.75
2023-05-05T06:44:25.256Z,43.25
2023-05-05T06:47:28.847Z,47.75
2023-05-05T06:50:32.941Z,31.00
2023-05-05T06:53:36.579Z,31.33
2023-05-05T06:56:41.044Z,30.33
2023-05-05T06:59:45.785Z,30.00
2023-05-05T07:02:49.699Z,30.33
2023-05-05T07:05:53.917Z,28.33
2023-05-05T07:08:58.009Z,29.00
2023-05-05T07:12:02.032Z,29.00
2023-05-05T07:15:23.286Z,32.25
2023-05-05T07:18:30.688Z,31.33
2023-05-05T07:21:35.481Z,32.50
2023-05-05T07:24:38.958Z,32.50
2023-05-05T07:27:42.966Z,31.25
2023-05-05T07:30:47.878Z,32.00
2023-05-05T07:33:52.181Z,28.33
2023-05-05T07:36:56.424Z,34.33
2023-05-05T07:40:00.327Z,36.00
2023-05-05T07:43:04.848Z,30.67
2023-05-05T07:46:10.134Z,28.00
2023-05-05T07:49:13.709Z,30.33
2023-05-05T07:52:46.803Z,31.67
2023-05-05T07:55:55.211Z,29.00
2023-05-05T07:58:59.212Z,30.00
2023-05-05T08:02:04.149Z,30.33
2023-05-05T08:05:09.475Z,32.00
2023-05-05T08:08:13.334Z,31.25
2023-05-05T08:11:17.334Z,22.33
2023-05-05T08:14:22.009Z,24.00
2023-05-05T08:17:27.348Z,21.00
2023-05-05T08:20:31.053Z,31.33
2023-05-05T08:23:35.272Z,34.00
2023-05-05T08:26:38.806Z,33.00
2023-05-05T08:29:42.660Z,30.00
2023-05-05T08:32:48.182Z,23.00
2023-05-05T08:35:52.142Z,23.00
2023-05-05T08:38:55.814Z,28.00
2023-05-05T08:41:59.694Z,30.33
2023-05-05T08:45:03.337Z,25.00
2023-05-05T08:48:10.306Z,26.50
